Time;durP1;ratioP1;P1;durP2;ratioP2;P2;SDS_P1;SDS_P2;PMS_P1;PMS_P2;Temp;Humidity;BMP_temperature;BMP_pressure;BME280_temperature;BME280_humidity;BME280_pressure;Samples;Min_cycle;Max_cycle;Signal;HPM_P1;HPM_P2
2024/02/17 00:00:20;;;;;;;;;;;;;;;20.85;30.49;102010.90;102788;1298;61419;-82
2024/02/17 00:02:45;;;;;;;;;;;;;;;20.86;30.42;102008.92;102693;1295;73571;-81
2024/02/17 00:05:11;;;;;;;;;;;;;;;20.86;30.49;102009.66;102824;1295;61409;-80
2024/02/17 00:07:37;;;;;;;;;;;;;;;20.85;30.40;102010.77;102855;1295;61397;-80
2024/02/17 00:10:03;;;;;;;;;;;;;;;20.85;30.58;102011.46;102983;1294;61417;-80
2024/02/17 00:12:29;;;;;;;;;;;;;;;20.85;30.44;102009.67;102851;1294;61378;-82
2024/02/17 00:14:54;;;;;;;;;;;;;;;20.85;30.39;102011.65;102705;1295;61397;-81
2024/02/17 00:17:20;;;;;;;;;;;;;;;20.85;30.49;102012.02;102739;1289;74375;-81
2024/02/17 00:19:46;;;;;;;;;;;;;;;20.85;30.59;102010.95;102808;1294;62520;-81
2024/02/17 00:22:13;;;;;;;;;;;;;;;20.85;30.47;102011.85;102710;1292;62063;-80
2024/02/17 00:24:39;;;;;;;;;;;;;;;20.84;30.66;102010.61;102869;1289;61757;-82
2024/02/17 00:27:04;;;;;;;;;;;;;;;20.84;30.48;102007.20;102716;1292;61394;-82
2024/02/17 00:29:30;;;;;;;;;;;;;;;20.84;30.41;102011.89;102683;1295;61845;-81
2024/02/17 00:31:56;;;;;;;;;;;;;;;20.84;30.45;102011.16;102648;1290;61461;-81
2024/02/17 00:34:23;;;;;;;;;;;;;;;20.84;30.43;102008.14;102740;1297;61394;-80
2024/02/17 00:36:49;;;;;;;;;;;;;;;20.84;30.53;102008.48;102718;1295;72984;-81
2024/02/17 00:39:14;;;;;;;;;;;;;;;20.84;30.49;102008.50;102657;1292;61383;-82
2024/02/17 00:41:40;;;;;;;;;;;;;;;20.83;30.49;102005.88;102624;1294;61408;-81
2024/02/17 00:44:05;;;;;;;;;;;;;;;20.83;30.46;102006.02;102655;1292;62280;-82
2024/02/17 00:46:31;;;;;;;;;;;;;;;20.83;30.57;102004.58;102659;1290;61404;-83
2024/02/17 00:48:57;;;;;;;;;;;;;;;20.83;30.37;102006.20;102865;1295;72300;-82
2024/02/17 00:51:23;;;;;;;;;;;;;;;20.83;30.53;102008.74;102745;1295;62486;-82
2024/02/17 00:53:49;;;;;;;;;;;;;;;20.82;30.66;102003.75;102650;1295;62049;-80
2024/02/17 00:56:14;;;;;;;;;;;;;;;20.82;30.53;101999.84;102845;1293;61393;-81
2024/02/17 00:58:40;;;;;;;;;;;;;;;20.83;30.53;101999.08;102717;1295;61890;-80
2024/02/17 01:01:06;;;;;;;;;;;;;;;20.82;30.66;101996.45;102675;1295;61592;-81
2024/02/17 01:03:31;;;;;;;;;;;;;;;20.82;30.44;102001.79;102678;1295;61301;-81
2024/02/17 01:05:57;;;;;;;;;;;;;;;20.82;30.65;101995.17;102686;1291;62625;-81
2024/02/17 01:08:22;;;;;;;;;;;;;;;20.81;30.52;101998.07;102661;1289;62614;-80
2024/02/17 01:10:48;;;;;;;;;;;;;;;20.81;30.65;101996.98;102783;1294;61395;-81
2024/02/17 01:13:13;;;;;;;;;;;;;;;20.81;30.55;101998.27;102846;1298;62585;-82
2024/02/17 01:15:39;;;;;;;;;;;;;;;20.81;30.58;101996.30;102818;1289;75561;-82
2024/02/17 01:18:05;;;;;;;;;;;;;;;20.81;30.63;101992.20;102800;1294;61456;-81
2024/02/17 01:20:30;;;;;;;;;;;;;;;20.80;30.57;101995.77;102712;1294;61394;-81
2024/02/17 01:22:56;;;;;;;;;;;;;;;20.80;30.71;101993.29;102733;1292;62353;-82
2024/02/17 01:25:23;;;;;;;;;;;;;;;20.80;30.54;101992.58;102883;1294;61769;-81
2024/02/17 01:27:49;;;;;;;;;;;;;;;20.80;30.52;101990.80;102882;1292;74535;-81
2024/02/17 01:30:15;;;;;;;;;;;;;;;20.80;30.64;101990.07;102849;1293;61286;-81
2024/02/17 01:32:40;;;;;;;;;;;;;;;20.80;30.55;101988.31;102793;1294;61591;-81
2024/02/17 01:35:06;;;;;;;;;;;;;;;20.80;30.59;101992.98;102819;1294;61432;-80
2024/02/17 01:37:33;;;;;;;;;;;;;;;20.79;30.53;101990.11;102835;1294;62403;-81
2024/02/17 01:39:59;;;;;;;;;;;;;;;20.80;30.36;101988.34;102636;1290;61332;-81
2024/02/17 01:42:25;;;;;;;;;;;;;;;20.80;30.41;101986.90;102674;1294;61467;-82
2024/02/17 01:44:51;;;;;;;;;;;;;;;20.79;30.54;101988.34;102855;1295;61405;-82
2024/02/17 01:47:16;;;;;;;;;;;;;;;20.79;30.51;101987.10;102823;1294;72494;-83
2024/02/17 01:49:42;;;;;;;;;;;;;;;20.79;30.56;101987.80;102645;1291;61448;-81
2024/02/17 01:52:07;;;;;;;;;;;;;;;20.79;30.47;101987.45;102720;1291;61920;-81
2024/02/17 01:54:33;;;;;;;;;;;;;;;20.79;30.49;101982.45;102690;1294;61493;-81
2024/02/17 01:56:59;;;;;;;;;;;;;;;20.80;30.55;101984.04;102770;1292;61387;-82
2024/02/17 01:59:25;;;;;;;;;;;;;;;20.78;30.60;101982.65;102769;1295;72430;-81
2024/02/17 02:01:51;;;;;;;;;;;;;;;20.79;30.46;101982.30;102706;1292;62604;-82
2024/02/17 02:04:16;;;;;;;;;;;;;;;20.79;30.53;101981.76;102669;1290;61399;-82
2024/02/17 02:06:42;;;;;;;;;;;;;;;20.78;30.43;101979.45;102724;1289;61397;-81
2024/02/17 02:09:08;;;;;;;;;;;;;;;20.78;30.56;101976.94;102900;1289;61420;-83
2024/02/17 02:11:33;;;;;;;;;;;;;;;20.78;30.48;101975.16;102718;1294;61494;-81
2024/02/17 02:14:15;;;;;;;;;;;;;;;20.78;30.33;101979.82;102776;1290;75390;-81
2024/02/17 02:16:41;;;;;;;;;;;;;;;20.78;30.67;101979.11;102642;1297;61372;-81
2024/02/17 02:19:07;;;;;;;;;;;;;;;20.78;30.60;101979.48;102781;1292;61428;-83
2024/02/17 02:21:37;;;;;;;;;;;;;;;20.77;30.46;101978.60;102631;1295;61302;-81
2024/02/17 02:24:03;;;;;;;;;;;;;;;20.78;30.45;101980.00;102876;1289;75439;-81
2024/02/17 02:26:29;;;;;;;;;;;;;;;20.77;30.53;101981.11;102724;1295;61365;-81
2024/02/17 02:28:54;;;;;;;;;;;;;;;20.77;30.57;101985.03;102900;1292;61863;-80
2024/02/17 02:31:20;;;;;;;;;;;;;;;20.76;30.45;101981.67;102680;1297;61394;-81
2024/02/17 02:33:47;;;;;;;;;;;;;;;20.76;30.61;101982.77;102991;1293;61417;-81
2024/02/17 02:36:13;;;;;;;;;;;;;;;20.75;30.55;101982.44;102910;1292;61373;-80
2024/02/17 02:38:38;;;;;;;;;;;;;;;20.76;30.57;101985.81;102650;1292;61359;-82
2024/02/17 02:41:04;;;;;;;;;;;;;;;20.76;30.66;101985.63;102765;1291;61457;-81
2024/02/17 02:43:30;;;;;;;;;;;;;;;20.75;30.48;101985.84;102864;1289;73411;-82
2024/02/17 02:45:57;;;;;;;;;;;;;;;20.76;30.59;101985.99;102669;1297;62671;-80
2024/02/17 02:48:22;;;;;;;;;;;;;;;20.75;30.51;101987.08;102881;1291;61350;-81
2024/02/17 02:50:48;;;;;;;;;;;;;;;20.75;30.49;101989.08;102707;1291;61352;-81
2024/02/17 02:53:13;;;;;;;;;;;;;;;20.75;30.56;101990.33;102733;1292;61387;-80
2024/02/17 02:55:39;;;;;;;;;;;;;;;20.75;30.57;101991.23;102930;1292;61380;-81
2024/02/17 02:58:04;;;;;;;;;;;;;;;20.75;30.61;101990.89;102615;1295;74564;-82
2024/02/17 03:00:31;;;;;;;;;;;;;;;20.75;30.66;101996.27;102847;1293;61675;-81
2024/02/17 03:02:56;;;;;;;;;;;;;;;20.74;30.61;101998.59;102686;1297;62570;-80
2024/02/17 03:05:23;;;;;;;;;;;;;;;20.74;30.56;101994.88;102883;1291;62660;-80
2024/02/17 03:07:48;;;;;;;;;;;;;;;20.74;30.60;101995.02;102689;1291;62233;-82
2024/02/17 03:10:14;;;;;;;;;;;;;;;20.74;30.59;101992.73;102769;1291;61456;-81
2024/02/17 03:12:39;;;;;;;;;;;;;;;20.74;30.68;101993.08;102684;1289;62310;-83
2024/02/17 03:15:05;;;;;;;;;;;;;;;20.73;30.52;101990.22;102650;1291;61948;-82
2024/02/17 03:17:31;;;;;;;;;;;;;;;20.74;30.66;101995.23;102881;1292;61399;-84
2024/02/17 03:19:56;;;;;;;;;;;;;;;20.74;30.60;101998.98;102656;1292;61418;-81
2024/02/17 03:22:22;;;;;;;;;;;;;;;20.73;30.66;101996.86;102877;1295;61881;-81
2024/02/17 03:24:47;;;;;;;;;;;;;;;20.73;30.62;101996.15;102863;1292;61391;-81
2024/02/17 03:27:14;;;;;;;;;;;;;;;20.73;30.55;102001.69;102664;1291;61773;-80
2024/02/17 03:29:39;;;;;;;;;;;;;;;20.73;30.54;102003.69;102718;1290;61404;-80
2024/02/17 03:32:05;;;;;;;;;;;;;;;20.72;30.62;102002.81;102868;1294;62493;-81
2024/02/17 03:34:31;;;;;;;;;;;;;;;20.72;30.60;102000.12;102721;1289;61578;-81
2024/02/17 03:36:57;;;;;;;;;;;;;;;20.73;30.70;101999.58;102793;1289;62344;-81
2024/02/17 03:39:23;;;;;;;;;;;;;;;20.72;30.70;101996.19;102639;1297;61411;-81
2024/02/17 03:41:49;;;;;;;;;;;;;;;20.72;30.68;101994.61;102683;1291;62600;-82
2024/02/17 03:44:16;;;;;;;;;;;;;;;20.72;30.80;101992.10;102804;1289;75651;-81
2024/02/17 03:46:41;;;;;;;;;;;;;;;20.72;30.57;101995.31;102743;1291;61264;-81
2024/02/17 03:49:09;;;;;;;;;;;;;;;20.71;30.68;101991.59;102807;1292;61294;-81
2024/02/17 03:51:35;;;;;;;;;;;;;;;20.71;30.54;101988.20;102665;1290;72219;-82
2024/02/17 03:54:00;;;;;;;;;;;;;;;20.72;30.71;101992.11;102844;1293;61369;-82
2024/02/17 03:56:26;;;;;;;;;;;;;;;20.71;30.72;101994.29;102857;1292;61454;-82
2024/02/17 03:58:51;;;;;;;;;;;;;;;20.71;30.50;101992.86;102708;1292;62321;-80
2024/02/17 04:01:17;;;;;;;;;;;;;;;20.71;30.73;101993.02;102853;1291;61339;-81
2024/02/17 04:03:42;;;;;;;;;;;;;;;20.71;30.64;101993.21;102749;1291;73570;-82
2024/02/17 04:06:08;;;;;;;;;;;;;;;20.71;30.69;101992.14;102571;1298;61373;-81
2024/02/17 04:08:34;;;;;;;;;;;;;;;20.71;30.65;101993.75;102536;1294;61673;-80
2024/02/17 04:11:00;;;;;;;;;;;;;;;20.70;30.61;101992.35;102067;1299;684414;-81
2024/02/17 04:13:27;;;;;;;;;;;;;;;20.70;30.75;101994.70;102506;1295;61385;-82
2024/02/17 04:15:52;;;;;;;;;;;;;;;20.70;30.55;101997.05;102554;1294;62238;-81
2024/02/17 04:18:19;;;;;;;;;;;;;;;20.70;30.77;101996.85;102517;1294;61658;-81
2024/02/17 04:20:46;;;;;;;;;;;;;;;20.69;30.80;101995.98;102701;1295;61444;-82
2024/02/17 04:23:12;;;;;;;;;;;;;;;20.70;30.79;101998.29;102505;1295;62183;-80
2024/02/17 04:25:39;;;;;;;;;;;;;;;20.70;30.76;102000.82;102517;1294;61556;-81
2024/02/17 04:28:05;;;;;;;;;;;;;;;20.69;30.72;102001.52;102553;1294;62156;-82
2024/02/17 04:30:31;;;;;;;;;;;;;;;20.69;30.60;102008.15;102592;1300;61483;-82
2024/02/17 04:32:58;;;;;;;;;;;;;;;20.69;30.62;102007.27;102545;1294;61587;-82
2024/02/17 04:35:24;;;;;;;;;;;;;;;20.69;30.76;102007.10;102761;1299;73279;-80
2024/02/17 04:37:49;;;;;;;;;;;;;;;20.69;30.64;102007.98;102688;1289;62653;-81
2024/02/17 04:40:15;;;;;;;;;;;;;;;20.69;30.61;102011.04;102787;1289;61330;-82
2024/02/17 04:42:41;;;;;;;;;;;;;;;20.68;30.70;102011.05;102833;1290;61392;-82
2024/02/17 04:45:07;;;;;;;;;;;;;;;20.69;30.65;102014.42;102652;1289;61412;-82
2024/02/17 04:47:32;;;;;;;;;;;;;;;20.68;30.71;102011.59;102921;1294;61988;-80
2024/02/17 04:49:58;;;;;;;;;;;;;;;20.69;30.69;102012.29;102665;1290;75573;-81
2024/02/17 04:52:24;;;;;;;;;;;;;;;20.68;30.78;102008.38;102648;1295;61424;-80
2024/02/17 04:54:49;;;;;;;;;;;;;;;20.68;30.73;102011.59;102959;1290;61401;-81
2024/02/17 04:57:15;;;;;;;;;;;;;;;20.68;30.71;102013.92;102651;1297;61394;-81
2024/02/17 04:59:41;;;;;;;;;;;;;;;20.68;30.78;102016.96;102648;1289;62635;-82
2024/02/17 05:02:07;;;;;;;;;;;;;;;20.68;30.84;102020.02;102869;1289;61790;-81
2024/02/17 05:04:32;;;;;;;;;;;;;;;20.68;30.71;102021.25;102658;1294;61388;-80
2024/02/17 05:06:58;;;;;;;;;;;;;;;20.67;30.63;102025.40;102640;1291;62339;-81
2024/02/17 05:09:25;;;;;;;;;;;;;;;20.67;30.73;102026.64;102771;1289;61791;-80
2024/02/17 05:11:50;;;;;;;;;;;;;;;20.67;30.71;102029.52;102815;1290;61410;-82
2024/02/17 05:14:16;;;;;;;;;;;;;;;20.67;30.72;102034.36;102756;1295;62010;-82
2024/02/17 05:16:45;;;;;;;;;;;;;;;20.67;30.77;102035.43;102712;1289;61405;-82
2024/02/17 05:19:12;;;;;;;;;;;;;;;20.66;30.74;102041.02;102666;1296;61407;-81
2024/02/17 05:21:38;;;;;;;;;;;;;;;20.66;30.81;102046.73;102680;1291;61405;-82
2024/02/17 05:24:04;;;;;;;;;;;;;;;20.66;30.69;102047.64;102687;1295;61847;-80
2024/02/17 05:26:33;;;;;;;;;;;;;;;20.66;30.90;102051.76;102737;1291;61373;-81
2024/02/17 05:28:59;;;;;;;;;;;;;;;20.66;30.78;102051.96;102638;1291;72654;-81
2024/02/17 05:31:26;;;;;;;;;;;;;;;20.66;30.66;102055.16;102729;1292;62444;-82
2024/02/17 05:33:51;;;;;;;;;;;;;;;20.66;30.75;102057.88;102679;1295;61440;-80
2024/02/17 05:36:17;;;;;;;;;;;;;;;20.66;30.67;102063.06;102712;1291;61941;-82
2024/02/17 05:38:42;;;;;;;;;;;;;;;20.65;30.77;102066.64;102819;1294;61281;-81
2024/02/17 05:41:08;;;;;;;;;;;;;;;20.65;30.63;102073.98;102846;1291;61456;-82
2024/02/17 05:43:34;;;;;;;;;;;;;;;20.64;30.62;102074.71;102815;1293;74414;-80
2024/02/17 05:45:59;;;;;;;;;;;;;;;20.65;30.78;102082.77;102800;1289;61471;-84
2024/02/17 05:48:25;;;;;;;;;;;;;;;20.64;30.85;102080.09;102779;1294;61377;-82
2024/02/17 05:50:53;;;;;;;;;;;;;;;20.64;30.71;102084.21;102680;1295;61369;-81
2024/02/17 05:53:19;;;;;;;;;;;;;;;20.64;30.82;102085.84;102741;1292;61338;-83
2024/02/17 05:55:45;;;;;;;;;;;;;;;20.64;30.77;102090.86;102645;1293;61464;-80
2024/02/17 05:58:11;;;;;;;;;;;;;;;20.63;30.69;102091.24;102698;1291;61485;-81
2024/02/17 06:00:37;;;;;;;;;;;;;;;20.64;30.74;102091.95;102658;1296;61304;-81
2024/02/17 06:03:02;;;;;;;;;;;;;;;20.63;30.77;102096.27;102753;1292;62571;-82
2024/02/17 06:05:29;;;;;;;;;;;;;;;20.63;30.73;102093.57;102847;1290;61443;-80
2024/02/17 06:07:55;;;;;;;;;;;;;;;20.63;30.70;102096.80;102637;1295;61333;-82
2024/02/17 06:10:20;;;;;;;;;;;;;;;20.63;30.69;102098.09;102668;1291;61399;-82
2024/02/17 06:12:48;;;;;;;;;;;;;;;20.63;30.80;102100.04;102854;1294;61429;-82
2024/02/17 06:15:15;;;;;;;;;;;;;;;20.63;30.80;102101.65;102685;1289;75104;-82
2024/02/17 06:17:43;;;;;;;;;;;;;;;20.62;30.82;102103.11;103038;1292;62078;-81
2024/02/17 06:22:56;;;;;;;;;;;;;;;20.62;30.88;102113.66;102670;1291;73328;-82
2024/02/17 06:25:22;;;;;;;;;;;;;;;20.62;30.65;102115.13;103070;1294;61416;-81
2024/02/17 06:27:49;;;;;;;;;;;;;;;20.62;30.85;102117.98;102920;1291;61408;-83
2024/02/17 06:30:14;;;;;;;;;;;;;;;20.62;30.89;102121.20;102662;1290;62486;-81
2024/02/17 06:32:41;;;;;;;;;;;;;;;20.61;30.77;102123.90;102685;1290;61778;-81
2024/02/17 06:35:06;;;;;;;;;;;;;;;20.61;30.81;102125.33;102632;1291;62588;-82
2024/02/17 06:37:34;;;;;;;;;;;;;;;20.61;30.84;102126.59;102656;1296;61484;-82
2024/02/17 06:40:00;;;;;;;;;;;;;;;20.61;30.83;102127.30;102951;1291;61307;-81
2024/02/17 06:42:25;;;;;;;;;;;;;;;20.61;30.75;102128.57;102908;1290;62017;-82
2024/02/17 06:44:51;;;;;;;;;;;;;;;20.60;30.73;102133.23;102659;1291;61378;-82
2024/02/17 06:47:17;;;;;;;;;;;;;;;20.61;30.84;102133.95;102923;1292;61387;-82
2024/02/17 06:49:42;;;;;;;;;;;;;;;20.60;30.75;102136.27;102895;1291;61768;-81
2024/02/17 06:52:09;;;;;;;;;;;;;;;20.60;30.87;102135.20;102890;1292;61361;-81
2024/02/17 06:54:35;;;;;;;;;;;;;;;20.60;30.81;102137.53;102734;1291;61297;-82
2024/02/17 06:57:01;;;;;;;;;;;;;;;20.59;30.76;102131.84;102499;1294;61950;-81
2024/02/17 06:59:26;;;;;;;;;;;;;;;20.59;30.83;102134.52;102502;1294;62298;-81
2024/02/17 07:01:52;;;;;;;;;;;;;;;20.59;30.81;102140.07;102464;1294;61510;-81
2024/02/17 07:04:17;;;;;;;;;;;;;;;20.59;30.71;102141.89;102630;1294;61882;-83
2024/02/17 07:06:43;;;;;;;;;;;;;;;20.59;30.75;102147.79;102288;1299;61930;-82
2024/02/17 07:09:20;;;;;;;;;;;;;;;20.59;30.73;102148.52;102280;1294;61434;-81
2024/02/17 07:11:46;;;;;;;;;;;;;;;20.58;30.67;102146.02;102361;1294;61317;-81
2024/02/17 07:14:14;;;;;;;;;;;;;;;20.58;30.72;102147.29;102493;1294;61406;-80
2024/02/17 07:16:40;;;;;;;;;;;;;;;20.58;30.74;102147.29;102537;1294;72490;-81
2024/02/17 07:19:05;;;;;;;;;;;;;;;20.58;30.80;102148.18;102478;1295;61421;-81
2024/02/17 07:21:32;;;;;;;;;;;;;;;20.57;30.68;102148.94;102268;1294;62837;-81
2024/02/17 07:23:58;;;;;;;;;;;;;;;20.58;30.62;102152.49;102337;1294;62217;-83
2024/02/17 07:26:23;;;;;;;;;;;;;;;20.57;30.86;102151.46;102442;1294;61520;-81
2024/02/17 07:28:49;;;;;;;;;;;;;;;20.57;30.77;102153.77;102696;1290;61401;-81
2024/02/17 07:31:16;;;;;;;;;;;;;;;20.57;30.79;102156.29;102778;1291;62713;-82
2024/02/17 07:33:43;;;;;;;;;;;;;;;20.56;30.69;102158.12;102723;1289;61467;-82
2024/02/17 07:36:09;;;;;;;;;;;;;;;20.56;30.70;102159.02;102667;1291;61376;-84
2024/02/17 07:38:34;;;;;;;;;;;;;;;20.56;30.78;102156.53;102975;1289;62500;-81
2024/02/17 07:41:00;;;;;;;;;;;;;;;20.55;30.72;102149.93;102783;1293;61372;-81
2024/02/17 07:43:25;;;;;;;;;;;;;;;20.55;30.70;102146.56;102682;1290;61490;-81
2024/02/17 07:45:51;;;;;;;;;;;;;;;20.54;30.86;102149.98;102837;1292;62366;-82
2024/02/17 07:48:17;;;;;;;;;;;;;;;20.54;30.79;102144.27;102722;1291;61393;-82
2024/02/17 07:50:45;;;;;;;;;;;;;;;20.53;30.79;102143.94;102803;1291;72505;-81
2024/02/17 07:53:11;;;;;;;;;;;;;;;20.53;30.78;102145.55;102878;1291;61343;-81
2024/02/17 07:55:36;;;;;;;;;;;;;;;20.54;30.69;102151.45;102691;1289;62535;-81
2024/02/17 07:58:05;;;;;;;;;;;;;;;20.54;30.88;102157.89;102723;1291;62135;-83
2024/02/17 08:00:33;;;;;;;;;;;;;;;20.53;30.77;102159.67;102726;1292;73375;-81
2024/02/17 08:02:58;;;;;;;;;;;;;;;20.53;30.74;102162.23;102783;1292;62504;-82
2024/02/17 08:05:24;;;;;;;;;;;;;;;20.53;30.76;102161.67;102827;1290;61384;-81
2024/02/17 08:07:49;;;;;;;;;;;;;;;20.52;30.81;102163.50;102850;1291;61805;-80
2024/02/17 08:10:15;;;;;;;;;;;;;;;20.52;30.77;102163.88;102735;1291;62439;-82
2024/02/17 08:12:40;;;;;;;;;;;;;;;20.51;30.66;102162.45;102693;1296;72319;-82
2024/02/17 08:15:07;;;;;;;;;;;;;;;20.51;30.65;102161.77;102779;1291;75386;-81
2024/02/17 08:17:34;;;;;;;;;;;;;;;20.51;30.77;102161.40;102686;1291;61957;-81
2024/02/17 08:20:00;;;;;;;;;;;;;;;20.51;30.76;102159.45;102690;1291;62522;-82
2024/02/17 08:22:26;;;;;;;;;;;;;;;20.50;30.69;102163.41;102690;1292;61490;-82
2024/02/17 08:24:52;;;;;;;;;;;;;;;20.50;30.77;102162.90;102786;1294;61314;-80
2024/02/17 08:27:17;;;;;;;;;;;;;;;20.50;30.71;102163.07;102805;1291;61384;-81
2024/02/17 08:29:43;;;;;;;;;;;;;;;20.50;30.76;102166.29;102737;1291;61369;-83
2024/02/17 08:32:08;;;;;;;;;;;;;;;20.50;30.73;102165.23;102730;1291;61408;-82
2024/02/17 08:34:34;;;;;;;;;;;;;;;20.49;30.83;102162.92;102688;1289;62667;-81
2024/02/17 08:36:59;;;;;;;;;;;;;;;20.49;30.65;102164.38;102775;1295;62552;-80
2024/02/17 08:39:25;;;;;;;;;;;;;;;20.49;30.69;102165.81;102750;1291;61385;-82
2024/02/17 08:41:53;;;;;;;;;;;;;;;20.49;30.71;102166.18;102782;1290;61414;-82
2024/02/17 08:44:18;;;;;;;;;;;;;;;20.49;30.74;102163.49;102925;1289;62296;-82
2024/02/17 08:46:44;;;;;;;;;;;;;;;20.48;30.72;102167.28;102698;1291;61396;-80
2024/02/17 08:49:10;;;;;;;;;;;;;;;20.48;30.72;102164.96;102686;1289;61461;-80
2024/02/17 08:51:36;;;;;;;;;;;;;;;20.48;30.66;102167.84;102710;1291;62278;-82
2024/02/17 08:54:01;;;;;;;;;;;;;;;20.48;30.70;102165.85;102831;1294;61302;-81
2024/02/17 08:56:27;;;;;;;;;;;;;;;20.47;30.62;102168.39;102791;1289;62061;-79
2024/02/17 08:58:52;;;;;;;;;;;;;;;20.47;30.70;102168.73;102756;1292;73377;-82
2024/02/17 09:01:18;;;;;;;;;;;;;;;20.48;30.58;102170.70;102826;1291;62545;-81
2024/02/17 09:03:44;;;;;;;;;;;;;;;20.47;30.75;102172.15;102580;1294;62602;-82
2024/02/17 09:06:10;;;;;;;;;;;;;;;20.47;30.73;102174.48;102795;1290;61417;-81
2024/02/17 09:08:35;;;;;;;;;;;;;;;20.47;30.76;102175.38;102800;1292;61360;-82
2024/02/17 09:11:01;;;;;;;;;;;;;;;20.47;30.78;102173.95;102754;1294;61333;-84
2024/02/17 09:13:26;;;;;;;;;;;;;;;20.46;30.78;102172.19;102692;1291;61452;-82
2024/02/17 09:15:52;;;;;;;;;;;;;;;20.46;30.76;102173.08;102889;1290;61398;-80
2024/02/17 09:18:17;;;;;;;;;;;;;;;20.46;30.72;102170.04;102731;1291;61395;-82
2024/02/17 09:20:43;;;;;;;;;;;;;;;20.46;30.60;102169.88;102772;1291;61367;-81
2024/02/17 09:23:09;;;;;;;;;;;;;;;20.45;30.69;102168.29;102820;1294;61833;-83
2024/02/17 09:25:35;;;;;;;;;;;;;;;20.46;30.80;102170.97;102713;1289;61466;-81
2024/02/17 09:28:00;;;;;;;;;;;;;;;20.45;30.64;102169.02;102766;1294;61569;-82
2024/02/17 09:30:28;;;;;;;;;;;;;;;20.45;30.80;102170.61;102749;1292;61308;-80
2024/02/17 09:32:54;;;;;;;;;;;;;;;20.45;30.58;102172.23;102802;1294;73156;-80
2024/02/17 09:35:20;;;;;;;;;;;;;;;20.45;30.69;102172.25;102756;1292;61419;-81
2024/02/17 09:37:45;;;;;;;;;;;;;;;20.44;30.81;102171.20;102680;1292;61776;-81
2024/02/17 09:40:12;;;;;;;;;;;;;;;20.45;30.65;102171.89;102872;1290;63080;-81
2024/02/17 09:42:37;;;;;;;;;;;;;;;20.45;30.63;102174.58;102695;1291;62642;-82
2024/02/17 09:45:05;;;;;;;;;;;;;;;20.45;30.53;102167.44;102662;1296;61458;-81
2024/02/17 09:47:32;;;;;;;;;;;;;;;20.45;30.66;102169.21;102718;1289;62463;-84
2024/02/17 09:49:58;;;;;;;;;;;;;;;20.45;30.60;102166.17;102720;1292;61374;-82
2024/02/17 09:52:24;;;;;;;;;;;;;;;20.44;30.68;102158.50;102746;1291;61430;-81
2024/02/17 09:54:50;;;;;;;;;;;;;;;20.44;30.58;102154.77;102842;1290;61341;-82
2024/02/17 09:57:17;;;;;;;;;;;;;;;20.44;30.65;102153.88;102725;1295;61512;-82
2024/02/17 09:59:43;;;;;;;;;;;;;;;20.44;30.68;102150.65;102826;1290;61395;-80
2024/02/17 10:02:09;;;;;;;;;;;;;;;20.44;30.68;102152.96;103060;1292;61423;-81
2024/02/17 10:04:34;;;;;;;;;;;;;;;20.43;30.74;102149.94;102666;1293;61333;-81
2024/02/17 10:07:00;;;;;;;;;;;;;;;20.43;30.69;102145.49;102652;1297;61461;-83
2024/02/17 10:09:30;;;;;;;;;;;;;;;20.43;30.59;102143.54;102782;1296;62392;-81
2024/02/17 10:11:56;;;;;;;;;;;;;;;20.43;30.68;102138.70;102704;1290;61360;-81
2024/02/17 10:14:22;;;;;;;;;;;;;;;20.43;30.69;102139.40;102845;1291;61427;-80
2024/02/17 10:16:47;;;;;;;;;;;;;;;20.43;30.81;102137.08;102729;1291;61371;-82
2024/02/17 10:19:13;;;;;;;;;;;;;;;20.43;30.71;102138.52;102654;1292;62105;-81
2024/02/17 10:21:39;;;;;;;;;;;;;;;20.43;30.68;102138.35;102736;1291;61313;-82
2024/02/17 10:24:05;;;;;;;;;;;;;;;20.43;30.76;102134.78;102870;1291;61562;-81
2024/02/17 10:26:32;;;;;;;;;;;;;;;20.42;30.65;102132.11;102871;1291;62331;-83
2024/02/17 10:28:58;;;;;;;;;;;;;;;20.43;30.75;102136.56;102895;1290;72414;-82
2024/02/17 10:31:23;;;;;;;;;;;;;;;20.43;30.77;102140.69;103012;1291;61493;-82
2024/02/17 10:33:49;;;;;;;;;;;;;;;20.42;30.68;102144.27;102649;1291;61369;-83
2024/02/17 10:36:19;;;;;;;;;;;;;;;20.42;30.77;102143.92;102678;1289;61998;-81
2024/02/17 10:38:45;;;;;;;;;;;;;;;20.42;30.66;102143.38;102903;1292;72618;-80
2024/02/17 10:41:11;;;;;;;;;;;;;;;20.42;30.67;102143.91;102860;1289;75537;-81
2024/02/17 10:43:41;;;;;;;;;;;;;;;20.42;30.78;102137.32;102749;1292;61371;-81
2024/02/17 10:46:08;;;;;;;;;;;;;;;20.42;30.80;102136.95;102838;1291;62179;-84
2024/02/17 10:48:33;;;;;;;;;;;;;;;20.41;30.66;102138.42;102644;1291;62297;-81
2024/02/17 10:50:59;;;;;;;;;;;;;;;20.42;30.73;102141.08;102740;1294;61417;-83
2024/02/17 10:53:30;;;;;;;;;;;;;;;20.42;30.77;102140.53;102776;1291;62231;-80
2024/02/17 10:55:56;;;;;;;;;;;;;;;20.41;30.79;102135.21;102735;1291;61353;-81
2024/02/17 10:58:22;;;;;;;;;;;;;;;20.41;30.56;102135.04;102847;1292;61417;-82
2024/02/17 11:00:48;;;;;;;;;;;;;;;20.41;30.75;102133.07;102694;1295;61361;-80
2024/02/17 11:03:15;;;;;;;;;;;;;;;20.42;30.73;102130.56;102772;1291;62334;-82
2024/02/17 11:05:41;;;;;;;;;;;;;;;20.41;30.67;102129.67;102750;1296;61494;-81
2024/02/17 11:08:07;;;;;;;;;;;;;;;20.41;30.80;102128.42;102813;1292;61414;-81
2024/02/17 11:10:32;;;;;;;;;;;;;;;20.41;30.70;102124.67;102726;1291;62134;-81
2024/02/17 11:12:59;;;;;;;;;;;;;;;20.41;30.70;102127.36;102737;1290;61331;-81
2024/02/17 11:15:25;;;;;;;;;;;;;;;20.41;30.64;102132.39;102949;1290;61334;-81
2024/02/17 11:17:55;;;;;;;;;;;;;;;20.41;30.76;102132.55;102829;1291;61863;-82
2024/02/17 11:20:22;;;;;;;;;;;;;;;20.41;30.65;102126.48;102695;1292;72506;-81
2024/02/17 11:22:50;;;;;;;;;;;;;;;20.40;30.64;102124.88;102862;1292;74403;-82
2024/02/17 11:25:35;;;;;;;;;;;;;;;20.41;30.78;102123.45;102717;1292;61440;-80
2024/02/17 11:28:02;;;;;;;;;;;;;;;20.40;30.67;102118.45;102753;1291;61446;-81
2024/02/17 11:30:28;;;;;;;;;;;;;;;20.40;30.89;102111.84;102760;1291;72373;-81
2024/02/17 11:32:58;;;;;;;;;;;;;;;20.41;30.78;102108.42;102708;1297;61421;-81
2024/02/17 11:35:24;;;;;;;;;;;;;;;20.40;30.71;102102.38;102900;1294;61341;-81
2024/02/17 11:37:51;;;;;;;;;;;;;;;20.40;30.67;102102.02;102718;1289;61402;-81
2024/02/17 11:40:16;;;;;;;;;;;;;;;20.40;30.75;102101.29;102779;1289;61394;-82
2024/02/17 11:42:42;;;;;;;;;;;;;;;20.40;30.69;102097.55;102718;1291;61947;-83
2024/02/17 11:45:07;;;;;;;;;;;;;;;20.39;30.79;102096.85;102835;1291;61405;-80
2024/02/17 11:47:33;;;;;;;;;;;;;;;20.39;30.86;102097.77;102796;1290;61437;-81
2024/02/17 11:50:09;;;;;;;;;;;;;;;20.40;30.68;102099.52;102734;1295;61985;-81
2024/02/17 11:52:34;;;;;;;;;;;;;;;20.39;30.73;102092.58;102788;1291;73369;-81
2024/02/17 11:55:00;;;;;;;;;;;;;;;20.40;30.78;102091.31;102759;1291;61961;-82
2024/02/17 11:57:29;;;;;;;;;;;;;;;20.39;30.83;102096.35;102762;1292;61896;-80
2024/02/17 11:59:54;;;;;;;;;;;;;;;20.39;30.71;102094.74;102806;1291;61646;-81
2024/02/17 12:02:20;;;;;;;;;;;;;;;20.40;30.69;102093.63;102700;1291;61426;-82
2024/02/17 12:04:45;;;;;;;;;;;;;;;20.39;30.69;102094.71;102704;1295;62490;-80
2024/02/17 12:07:12;;;;;;;;;;;;;;;20.39;30.74;102093.52;102804;1292;61299;-81
2024/02/17 12:09:37;;;;;;;;;;;;;;;20.39;30.78;102096.52;102734;1292;61406;-81
2024/02/17 12:12:05;;;;;;;;;;;;;;;20.39;30.81;102088.49;102778;1293;61407;-83
2024/02/17 12:14:30;;;;;;;;;;;;;;;20.38;30.74;102086.90;102709;1295;72104;-82
2024/02/17 12:16:56;;;;;;;;;;;;;;;20.38;30.83;102085.09;102708;1291;61871;-81
2024/02/17 12:19:23;;;;;;;;;;;;;;;20.38;30.77;102079.75;102751;1296;61516;-81
2024/02/17 12:21:49;;;;;;;;;;;;;;;20.38;30.84;102078.52;102801;1292;61387;-81